createdAt,value
2022-11-01T00:02:01.059Z,100277.31
2022-11-01T00:04:27.763Z,100257.16
2022-11-01T00:06:54.434Z,100255.66
2022-11-01T00:09:21.383Z,100270.03
2022-11-01T00:11:47.965Z,100275.34
2022-11-01T00:14:17.235Z,100265.75
2022-11-01T00:16:44.139Z,100278.09
2022-11-01T00:19:11.200Z,100277.22
2022-11-01T00:21:37.746Z,100279.97
2022-11-01T00:24:04.516Z,100261.13
2022-11-01T00:26:31.169Z,100258.31
2022-11-01T00:28:57.734Z,100270.38
2022-11-01T00:31:24.997Z,100280.75
2022-11-01T00:33:51.532Z,100279.03
2022-11-01T00:36:18.396Z,100277.38
2022-11-01T00:38:45.055Z,100281.75
2022-11-01T00:41:11.597Z,100278.41
2022-11-01T00:43:38.152Z,100282.78
2022-11-01T00:46:05.331Z,100285.56
2022-11-01T00:48:32.155Z,100264.81
2022-11-01T00:50:58.894Z,100277.75
2022-11-01T00:53:25.646Z,100257.38
2022-11-01T00:55:52.530Z,100280.56
2022-11-01T00:58:19.159Z,100277.16
2022-11-01T01:00:47.577Z,100285.13
2022-11-01T01:03:14.238Z,100277.75
2022-11-01T01:05:40.804Z,100250.00
2022-11-01T01:08:07.342Z,100240.22
2022-11-01T01:10:35.896Z,100264.97
2022-11-01T01:13:03.065Z,100250.91
2022-11-01T01:15:29.934Z,100246.97
2022-11-01T01:17:56.535Z,100229.19
2022-11-01T01:20:23.928Z,100246.22
2022-11-01T01:22:50.670Z,100230.22
2022-11-01T01:25:17.771Z,100228.81
2022-11-01T01:27:44.375Z,100224.34
2022-11-01T01:30:11.699Z,100225.13
2022-11-01T01:32:38.660Z,100223.41
2022-11-01T01:35:05.737Z,100227.97
2022-11-01T01:37:32.378Z,100210.69
2022-11-01T01:39:59.007Z,100231.13
2022-11-01T01:42:37.460Z,100222.22
2022-11-01T01:45:27.303Z,100214.00
2022-11-01T01:47:56.104Z,100225.47
2022-11-01T01:50:35.464Z,100217.78
2022-11-01T01:53:17.405Z,100233.44
2022-11-01T01:55:54.021Z,100234.38
2022-11-01T01:58:25.170Z,100226.41
2022-11-01T02:00:54.113Z,100228.13
2022-11-01T02:03:23.560Z,100222.53
2022-11-01T02:06:07.790Z,100211.16
2022-11-01T02:08:35.442Z,100221.84
2022-11-01T02:11:05.504Z,100221.84
2022-11-01T02:13:32.359Z,100213.78
2022-11-01T02:16:37.591Z,100216.31
2022-11-01T02:19:09.901Z,100209.97
2022-11-01T02:21:48.450Z,100207.41
2022-11-01T02:24:52.451Z,100209.88
2022-11-01T02:27:24.865Z,100188.34
2022-11-01T02:30:14.969Z,100202.31
2022-11-01T02:33:00.016Z,100217.50
2022-11-01T02:35:40.532Z,100213.91
2022-11-01T02:38:22.373Z,100228.91
2022-11-01T02:41:08.457Z,100223.38
2022-11-01T02:43:52.459Z,100221.41
2022-11-01T02:46:40.176Z,100212.41
2022-11-01T02:49:09.334Z,100222.88
2022-11-01T02:51:37.723Z,100200.25
2022-11-01T02:54:10.737Z,100223.44
2022-11-01T02:56:39.478Z,100220.03
2022-11-01T02:59:12.432Z,100219.25
2022-11-01T03:01:42.218Z,100183.22
2022-11-01T03:04:08.832Z,100209.84
2022-11-01T03:06:46.202Z,100203.56
2022-11-01T03:09:14.589Z,100208.63
2022-11-01T03:12:03.682Z,100205.13
2022-11-01T03:14:44.432Z,100205.13
2022-11-01T03:17:25.468Z,100223.63
2022-11-01T03:20:06.014Z,100227.78
2022-11-01T03:22:48.915Z,100241.69
2022-11-01T03:25:44.417Z,100249.41
2022-11-01T03:28:28.658Z,100255.41
2022-11-01T03:31:21.377Z,100264.91
2022-11-01T03:34:15.920Z,100257.78
2022-11-01T03:36:49.854Z,100261.88
2022-11-01T03:39:22.007Z,100268.91
2022-11-01T03:41:54.477Z,100268.16
2022-11-01T03:44:21.401Z,100267.47
2022-11-01T03:46:49.106Z,100266.91
2022-11-01T03:49:19.780Z,100263.56
2022-11-01T03:51:46.694Z,100269.13
2022-11-01T03:54:13.305Z,100264.44
2022-11-01T03:56:43.174Z,100264.78
2022-11-01T03:59:10.808Z,100279.19
2022-11-01T04:01:37.982Z,100279.41
2022-11-01T04:04:04.755Z,100277.88
2022-11-01T04:06:31.510Z,100278.91
2022-11-01T04:08:58.066Z,100273.84
2022-11-01T04:11:24.652Z,100275.84
2022-11-01T04:13:51.319Z,100289.88
2022-11-01T04:16:36.724Z,100249.31
2022-11-01T04:19:22.028Z,100279.53
2022-11-01T04:21:48.651Z,100266.94
2022-11-01T04:24:21.251Z,100290.16
2022-11-01T04:26:48.462Z,100277.22
2022-11-01T04:29:15.032Z,100297.34
2022-11-01T04:31:41.569Z,100271.66
2022-11-01T04:34:08.578Z,100294.78
2022-11-01T04:36:37.314Z,100308.59
2022-11-01T04:39:03.880Z,100301.47
2022-11-01T04:41:30.451Z,100289.47
2022-11-01T04:43:59.063Z,100308.38
2022-11-01T04:46:26.021Z,100298.13
2022-11-01T04:48:52.634Z,100288.34
2022-11-01T04:51:19.164Z,100296.97
2022-11-01T04:53:45.705Z,100300.69
2022-11-01T04:56:13.569Z,100303.28
2022-11-01T04:58:44.747Z,100289.72
2022-11-01T05:01:13.668Z,100310.09
2022-11-01T05:03:40.385Z,100308.38
2022-11-01T05:06:06.963Z,100305.16
2022-11-01T05:08:36.862Z,100301.81
2022-11-01T05:11:03.490Z,100308.91
2022-11-01T05:13:30.235Z,100291.81
2022-11-01T05:16:18.365Z,100312.34
2022-11-01T05:18:43.475Z,100315.56
2022-11-01T05:21:10.089Z,100317.28
2022-11-01T05:23:36.757Z,100323.47
2022-11-01T05:26:03.337Z,100326.19
2022-11-01T05:28:29.863Z,100335.16
2022-11-01T05:30:57.931Z,100342.16
2022-11-01T05:33:24.482Z,100329.84
2022-11-01T05:35:51.122Z,100341.97
2022-11-01T05:38:17.720Z,100330.69
2022-11-01T05:40:44.251Z,100338.53
2022-11-01T05:43:10.863Z,100333.59
2022-11-01T05:45:37.958Z,100354.25
2022-11-01T05:48:04.811Z,100354.94
2022-11-01T05:50:31.731Z,100356.66
2022-11-01T05:53:08.313Z,100350.38
2022-11-01T05:55:35.783Z,100355.72
2022-11-01T05:58:02.498Z,100361.50
2022-11-01T06:00:29.226Z,100334.63
2022-11-01T06:03:00.984Z,100332.91
2022-11-01T06:05:28.654Z,100344.91
2022-11-01T06:07:55.348Z,100364.22
2022-11-01T06:10:22.086Z,100357.88
2022-11-01T06:12:48.773Z,100372.88
2022-11-01T06:15:15.474Z,100377.25
2022-11-01T06:17:42.124Z,100386.00
2022-11-01T06:20:09.468Z,100383.31
2022-11-01T06:22:36.420Z,100385.88
2022-11-01T06:25:03.600Z,100389.47
2022-11-01T06:27:30.539Z,100383.13
2022-11-01T06:29:57.049Z,100339.31
2022-11-01T06:32:23.558Z,100374.47
2022-11-01T06:34:50.336Z,100389.63
2022-11-01T06:37:16.941Z,100384.13
2022-11-01T06:39:44.134Z,100388.91
2022-11-01T06:42:10.677Z,100397.28
2022-11-01T06:44:37.207Z,100397.78
2022-11-01T06:47:03.939Z,100374.59
2022-11-01T06:49:30.596Z,100366.06
2022-11-01T06:51:58.775Z,100395.91
2022-11-01T06:54:25.799Z,100407.34
2022-11-01T06:56:52.323Z,100394.50
2022-11-01T06:59:21.164Z,100423.63
2022-11-01T07:01:47.824Z,100426.38
2022-11-01T07:04:14.488Z,100428.19
2022-11-01T07:06:41.416Z,100436.84
2022-11-01T07:09:08.034Z,100424.66
2022-11-01T07:11:34.726Z,100431.69
2022-11-01T07:14:01.347Z,100439.28
2022-11-01T07:16:29.366Z,100419.16
2022-11-01T07:18:56.104Z,100450.34
2022-11-01T07:21:22.990Z,100442.47
2022-11-01T07:23:50.142Z,100457.00
2022-11-01T07:26:16.922Z,100460.44
2022-11-01T07:28:43.527Z,100460.09
2022-11-01T07:31:10.202Z,100458.84
2022-11-01T07:33:36.907Z,100462.94
2022-11-01T07:36:04.793Z,100461.03
2022-11-01T07:38:31.762Z,100468.94
2022-11-01T07:40:58.486Z,100457.25
2022-11-01T07:43:25.295Z,100465.25
2022-11-01T07:45:52.077Z,100468.69
2022-11-01T07:48:19.937Z,100470.00
2022-11-01T07:50:46.705Z,100479.88
2022-11-01T07:53:14.759Z,100479.13
2022-11-01T07:55:42.480Z,100491.41
2022-11-01T07:58:10.049Z,100463.91
2022-11-01T08:00:37.802Z,100486.84
2022-11-01T08:03:12.722Z,100484.88
2022-11-01T08:05:39.747Z,100496.00
2022-11-01T08:08:07.169Z,100500.59
2022-11-01T08:10:35.572Z,100500.88
2022-11-01T08:13:14.792Z,100500.44
2022-11-01T08:15:41.677Z,100502.06
2022-11-01T08:18:10.136Z,100499.56
2022-11-01T08:20:36.835Z,100501.03
2022-11-01T08:23:03.982Z,100510.72
2022-11-01T08:25:31.184Z,100511.34
2022-11-01T08:28:06.237Z,100510.41
2022-11-01T08:30:33.726Z,100493.38
2022-11-01T08:33:02.368Z,100514.88
2022-11-01T08:35:29.667Z,100515.53
2022-11-01T08:37:56.466Z,100512.78
2022-11-01T08:40:22.991Z,100527.69
2022-11-01T08:42:51.001Z,100527.91
2022-11-01T08:45:18.025Z,100515.53
2022-11-01T08:47:45.048Z,100536.78
2022-11-01T08:50:14.996Z,100532.84
2022-11-01T08:52:41.874Z,100534.75
2022-11-01T08:55:10.114Z,100533.03
2022-11-01T08:57:36.842Z,100544.47
2022-11-01T09:00:07.136Z,100553.53
2022-11-01T09:02:34.820Z,100546.94
2022-11-01T09:05:05.156Z,100531.16
2022-11-01T09:07:36.053Z,100552.47
2022-11-01T09:10:02.984Z,100549.91
2022-11-01T09:12:29.907Z,100556.84
2022-11-01T09:14:56.530Z,100556.84
2022-11-01T09:17:23.354Z,100556.28
2022-11-01T09:19:50.048Z,100553.00
2022-11-01T09:22:17.581Z,100562.34
2022-11-01T09:24:44.141Z,100561.88
2022-11-01T09:27:10.882Z,100573.13
2022-11-01T09:29:37.836Z,100564.09
2022-11-01T09:32:04.820Z,100557.78
2022-11-01T09:34:31.310Z,100561.00
2022-11-01T09:36:58.072Z,100559.47
2022-11-01T09:39:24.855Z,100568.16
2022-11-01T09:41:56.416Z,100554.28
2022-11-01T09:44:26.055Z,100548.91
2022-11-01T09:47:21.965Z,100574.13
2022-11-01T09:49:57.719Z,100580.97
2022-11-01T09:52:25.510Z,100577.16
2022-11-01T09:54:52.176Z,100558.66
2022-11-01T09:57:28.064Z,100584.59
2022-11-01T10:00:04.304Z,100565.78
2022-11-01T10:02:36.548Z,100570.50
2022-11-01T10:05:31.800Z,100594.84
2022-11-01T10:08:10.783Z,100592.38
2022-11-01T10:10:41.936Z,100566.59
2022-11-01T10:13:29.884Z,100600.91
2022-11-01T10:16:00.536Z,100601.00
2022-11-01T10:18:35.088Z,100593.75
2022-11-01T10:21:08.574Z,100609.25
2022-11-01T10:23:46.220Z,100601.56
2022-11-01T10:26:29.273Z,100620.06
2022-11-01T10:29:20.358Z,100626.25
2022-11-01T10:31:50.896Z,100620.94
2022-11-01T10:34:17.255Z,100621.13
2022-11-01T10:36:45.099Z,100597.75
2022-11-01T10:42:17.631Z,100620.97
2022-11-01T10:44:48.487Z,100601.84
2022-11-01T10:47:19.165Z,100604.25
2022-11-01T10:50:05.522Z,100616.44
2022-11-01T10:52:45.528Z,100612.53
2022-11-01T10:55:19.659Z,100619.03
2022-11-01T10:57:53.830Z,100623.97
2022-11-01T11:00:21.703Z,100621.41
2022-11-01T11:02:55.751Z,100612.81
2022-11-01T11:05:26.339Z,100612.09
2022-11-01T11:07:53.110Z,100619.25
2022-11-01T11:10:27.100Z,100616.66
2022-11-01T11:13:01.295Z,100621.50
2022-11-01T11:15:44.226Z,100621.69
2022-11-01T11:18:30.673Z,100621.47
2022-11-01T11:21:00.485Z,100629.19
2022-11-01T11:23:34.068Z,100624.31
2022-11-01T11:26:36.155Z,100624.31
2022-11-01T11:29:05.504Z,100624.97
2022-11-01T11:31:37.586Z,100633.44
2022-11-01T11:34:26.086Z,100625.72
2022-11-01T11:36:55.130Z,100606.09
2022-11-01T11:39:27.684Z,100638.19
2022-11-01T11:41:54.831Z,100631.53
2022-11-01T11:44:55.911Z,100632.19
2022-11-01T11:47:25.832Z,100636.38
2022-11-01T11:49:54.248Z,100647.03
2022-11-01T11:52:28.666Z,100619.06
2022-11-01T11:54:56.065Z,100642.00
2022-11-01T11:57:30.032Z,100627.44
2022-11-01T12:00:01.482Z,100647.13
2022-11-01T12:02:32.605Z,100624.97
2022-11-01T12:05:04.657Z,100646.34
2022-11-01T12:07:37.906Z,100639.16
2022-11-01T12:10:26.191Z,100654.28
2022-11-01T12:12:53.438Z,100648.53
2022-11-01T12:15:35.736Z,100647.16
2022-11-01T12:18:14.699Z,100635.28
2022-11-01T12:20:43.447Z,100645.47
2022-11-01T12:23:27.007Z,100648.66
2022-11-01T12:25:55.342Z,100644.16
2022-11-01T12:28:42.916Z,100646.22
2022-11-01T12:31:18.034Z,100653.50
2022-11-01T12:33:51.863Z,100652.41
2022-11-01T12:36:25.014Z,100643.53
2022-11-01T12:38:59.736Z,100650.06
2022-11-01T12:41:31.881Z,100647.91
2022-11-01T12:44:05.764Z,100647.91
2022-11-01T12:46:45.505Z,100649.19
2022-11-01T12:49:40.338Z,100641.25
2022-11-01T12:52:17.779Z,100643.00
2022-11-01T12:54:58.439Z,100649.28
2022-11-01T12:57:25.091Z,100635.69
2022-11-01T12:59:52.216Z,100632.78
2022-11-01T13:02:43.214Z,100641.25
2022-11-01T13:05:19.228Z,100636.75
2022-11-01T13:08:06.340Z,100629.06
2022-11-01T13:10:48.180Z,100649.09
2022-11-01T13:13:39.559Z,100637.09
2022-11-01T13:16:16.393Z,100646.63
2022-11-01T13:18:53.147Z,100639.88
2022-11-01T13:21:46.440Z,100645.66
2022-11-01T13:24:34.878Z,100646.41
2022-11-01T13:27:11.071Z,100631.09
2022-11-01T13:29:52.823Z,100631.53
2022-11-01T13:32:28.987Z,100636.59
2022-11-01T13:35:33.133Z,100644.28
2022-11-01T13:38:20.612Z,100646.44
2022-11-01T13:41:19.844Z,100638.94
2022-11-01T13:43:56.163Z,100648.78
2022-11-01T13:46:40.531Z,100644.00
2022-11-01T13:49:10.122Z,100632.94
2022-11-01T13:51:47.936Z,100645.38
2022-11-01T13:54:25.819Z,100646.34
2022-11-01T13:57:00.271Z,100645.38
2022-11-01T13:59:37.536Z,100642.81
2022-11-01T14:02:22.539Z,100629.53
2022-11-01T14:05:13.656Z,100652.94
2022-11-01T14:07:43.093Z,100646.66
2022-11-01T14:10:31.814Z,100646.84
2022-11-01T14:12:59.636Z,100650.47
2022-11-01T14:15:28.552Z,100658.75
2022-11-01T14:18:04.788Z,100659.50
2022-11-01T14:20:31.627Z,100666.88
2022-11-01T14:22:59.008Z,100670.59
2022-11-01T14:25:30.073Z,100672.13
2022-11-01T14:28:18.395Z,100666.97
2022-11-01T14:30:49.395Z,100676.91
2022-11-01T14:33:19.617Z,100664.59
2022-11-01T14:35:54.094Z,100666.72
2022-11-01T14:38:28.517Z,100663.69
2022-11-01T14:41:00.272Z,100669.25
2022-11-01T14:43:41.646Z,100677.69
2022-11-01T14:46:22.809Z,100681.44
2022-11-01T14:49:05.501Z,100672.84
2022-11-01T14:51:43.345Z,100672.19
2022-11-01T14:54:23.277Z,100667.16
2022-11-01T14:56:52.774Z,100672.72
2022-11-01T14:59:34.167Z,100656.75
2022-11-01T15:02:07.454Z,100649.31
2022-11-01T15:04:43.919Z,100670.09
2022-11-01T15:07:29.387Z,100654.22
2022-11-01T15:10:21.308Z,100659.00
2022-11-01T15:12:59.054Z,100673.78
2022-11-01T15:15:29.746Z,100651.69
2022-11-01T15:17:59.255Z,100661.28
2022-11-01T15:20:35.495Z,100675.06
2022-11-01T15:23:09.861Z,100672.31
2022-11-01T15:25:36.924Z,100679.94
2022-11-01T15:28:03.623Z,100684.44
2022-11-01T15:30:33.983Z,100679.41
2022-11-01T15:33:20.520Z,100685.47
2022-11-01T15:36:20.769Z,100686.66
2022-11-01T15:38:54.557Z,100687.59
2022-11-01T15:41:29.616Z,100677.75
2022-11-01T15:43:59.236Z,100692.16
2022-11-01T15:46:33.443Z,100698.44
2022-11-01T15:49:15.532Z,100695.94
2022-11-01T15:51:52.653Z,100696.31
2022-11-01T15:54:48.054Z,100692.41
2022-11-01T15:57:47.325Z,100695.53
2022-11-01T16:00:30.965Z,100695.94
2022-11-01T16:03:35.276Z,100696.56
2022-11-01T16:06:11.040Z,100699.09
2022-11-01T16:08:43.600Z,100701.38
2022-11-01T16:11:11.422Z,100698.22
2022-11-01T16:13:41.066Z,100706.59
2022-11-01T16:16:14.866Z,100724.56
2022-11-01T16:18:48.053Z,100733.84
2022-11-01T16:21:25.418Z,100729.84
2022-11-01T16:23:57.614Z,100733.91
2022-11-01T16:26:24.591Z,100742.34
2022-11-01T16:28:53.290Z,100740.03
2022-11-01T16:31:22.845Z,100737.13
2022-11-01T16:33:49.399Z,100744.25
2022-11-01T16:36:18.930Z,100742.63
2022-11-01T16:38:46.865Z,100745.28
2022-11-01T16:41:20.503Z,100755.06
2022-11-01T16:43:49.224Z,100755.44
2022-11-01T16:46:15.754Z,100734.88
2022-11-01T16:48:57.089Z,100733.25
2022-11-01T16:51:28.249Z,100743.91
2022-11-01T16:53:56.262Z,100771.03
2022-11-01T16:56:50.074Z,100767.09
2022-11-01T16:59:31.976Z,100744.19
2022-11-01T17:01:59.089Z,100774.16
2022-11-01T17:04:27.645Z,100781.03
2022-11-01T17:06:55.925Z,100776.91
2022-11-01T17:09:22.883Z,100786.53
2022-11-01T17:11:51.717Z,100790.91
2022-11-01T17:14:19.418Z,100775.59
2022-11-01T17:16:47.786Z,100796.25
2022-11-01T17:19:21.172Z,100794.34
2022-11-01T17:21:49.496Z,100793.41
2022-11-01T17:24:20.134Z,100796.16
2022-11-01T17:26:46.820Z,100797.00
2022-11-01T17:29:16.661Z,100796.25
2022-11-01T17:31:43.226Z,100769.31
2022-11-01T17:34:09.786Z,100791.88
2022-11-01T17:36:38.267Z,100775.78
2022-11-01T17:39:04.825Z,100782.97
2022-11-01T17:41:31.367Z,100798.13
2022-11-01T17:43:57.977Z,100787.16
2022-11-01T17:46:25.868Z,100803.75
2022-11-01T17:48:52.362Z,100796.72
2022-11-01T17:51:19.019Z,100801.59
2022-11-01T17:53:45.624Z,100798.94
2022-11-01T17:56:12.126Z,100808.00
2022-11-01T17:58:38.906Z,100789.25
2022-11-01T18:01:07.498Z,100822.47
2022-11-01T18:03:34.140Z,100814.91
2022-11-01T18:06:00.776Z,100816.72
2022-11-01T18:08:31.000Z,100815.06
2022-11-01T18:11:10.924Z,100812.72
2022-11-01T18:13:43.327Z,100811.97
2022-11-01T18:16:25.091Z,100823.34
2022-11-01T18:19:29.932Z,100827.81
2022-11-01T18:22:24.452Z,100826.94
2022-11-01T18:25:02.716Z,100829.00
2022-11-01T18:27:37.560Z,100828.47
2022-11-01T18:30:12.850Z,100830.19
2022-11-01T18:32:48.696Z,100822.38
2022-11-01T18:35:30.693Z,100831.22
2022-11-01T18:38:10.740Z,100810.97
2022-11-01T18:40:45.810Z,100827.78
2022-11-01T18:43:12.417Z,100835.66
2022-11-01T18:45:57.703Z,100831.44
2022-11-01T18:48:29.085Z,100831.50
2022-11-01T18:51:05.070Z,100835.81
2022-11-01T18:53:33.022Z,100832.44
2022-11-01T18:56:22.604Z,100843.22
2022-11-01T18:58:51.213Z,100845.16
2022-11-01T19:01:31.909Z,100829.03
2022-11-01T19:04:11.077Z,100842.16
2022-11-01T19:06:37.585Z,100832.78
2022-11-01T19:09:24.338Z,100828.63
2022-11-01T19:12:15.978Z,100843.78
2022-11-01T19:14:44.235Z,100844.22
2022-11-01T19:17:24.506Z,100847.28
2022-11-01T19:19:53.691Z,100847.38
2022-11-01T19:22:31.708Z,100847.28
2022-11-01T19:24:59.574Z,100840.06
2022-11-01T19:27:26.640Z,100843.19
2022-11-01T19:29:57.756Z,100844.06
2022-11-01T19:32:26.008Z,100826.78
2022-11-01T19:34:53.957Z,100841.63
2022-11-01T19:37:34.612Z,100838.47
2022-11-01T19:40:09.928Z,100836.75
2022-11-01T19:42:36.424Z,100835.94
2022-11-01T19:45:28.824Z,100803.94
2022-11-01T19:47:55.687Z,100828.22
2022-11-01T19:50:36.098Z,100837.31
2022-11-01T19:53:02.707Z,100835.88
2022-11-01T19:55:43.662Z,100838.63
2022-11-01T19:58:22.611Z,100820.88
2022-11-01T20:00:49.658Z,100847.13
2022-11-01T20:03:29.998Z,100842.13
2022-11-01T20:05:56.727Z,100847.75
2022-11-01T20:08:30.729Z,100848.06
2022-11-01T20:10:57.331Z,100854.38
2022-11-01T20:13:24.056Z,100843.16
2022-11-01T20:15:50.582Z,100850.25
2022-11-01T20:18:17.088Z,100853.72
2022-11-01T20:20:45.853Z,100855.38
2022-11-01T20:23:25.754Z,100857.91
2022-11-01T20:25:53.185Z,100853.78
2022-11-01T20:28:19.750Z,100857.41
2022-11-01T20:30:46.328Z,100859.16
2022-11-01T20:33:13.334Z,100857.59
2022-11-01T20:35:39.901Z,100873.75
2022-11-01T20:38:06.503Z,100871.56
2022-11-01T20:40:33.034Z,100873.81
2022-11-01T20:43:00.159Z,100880.25
2022-11-01T20:45:26.974Z,100888.44
2022-11-01T20:47:53.539Z,100888.84
2022-11-01T20:50:20.186Z,100902.44
2022-11-01T20:52:46.854Z,100901.84
2022-11-01T20:55:13.448Z,100901.09
2022-11-01T20:57:40.111Z,100900.53
2022-11-01T21:00:09.902Z,100911.47
2022-11-01T21:02:36.779Z,100902.09
2022-11-01T21:05:24.033Z,100907.63
2022-11-01T21:08:14.609Z,100915.00
2022-11-01T21:10:43.194Z,100909.94
2022-11-01T21:13:27.096Z,100912.81
2022-11-01T21:15:56.136Z,100912.06
2022-11-01T21:18:36.861Z,100911.34
2022-11-01T21:21:15.298Z,100918.47
2022-11-01T21:23:43.898Z,100888.97
2022-11-01T21:26:17.468Z,100900.41
2022-11-01T21:28:49.163Z,100884.72
2022-11-01T21:31:15.663Z,100913.47
2022-11-01T21:33:54.356Z,100894.66
2022-11-01T21:36:20.877Z,100893.84
2022-11-01T21:39:01.756Z,100916.09
2022-11-01T21:41:44.940Z,100924.25
2022-11-01T21:44:20.113Z,100910.88
2022-11-01T21:46:49.505Z,100918.00
2022-11-01T21:49:24.146Z,100910.28
2022-11-01T21:51:51.122Z,100905.25
2022-11-01T21:54:17.728Z,100901.97
2022-11-01T21:56:44.321Z,100875.16
2022-11-01T21:59:10.854Z,100900.19
2022-11-01T22:01:39.459Z,100878.38
2022-11-01T22:04:06.364Z,100898.16
2022-11-01T22:06:32.879Z,100899.22
2022-11-01T22:08:59.489Z,100900.31
2022-11-01T22:11:31.529Z,100903.09
2022-11-01T22:13:59.130Z,100907.59
2022-11-01T22:16:25.819Z,100909.31
2022-11-01T22:18:52.506Z,100903.22
2022-11-01T22:21:19.082Z,100896.19
2022-11-01T22:23:45.960Z,100891.16
2022-11-01T22:26:12.755Z,100896.13
2022-11-01T22:28:39.656Z,100900.81
2022-11-01T22:31:06.635Z,100898.16
2022-11-01T22:33:34.905Z,100904.38
2022-11-01T22:36:07.011Z,100918.47
2022-11-01T22:38:42.004Z,100906.16
2022-11-01T22:41:14.111Z,100912.41
2022-11-01T22:43:47.634Z,100899.28
2022-11-01T22:46:21.679Z,100875.06
2022-11-01T22:48:49.392Z,100901.81
2022-11-01T22:51:22.729Z,100905.53
2022-11-01T22:53:52.538Z,100906.19
2022-11-01T22:56:19.362Z,100860.25
2022-11-01T22:58:46.129Z,100902.44
2022-11-01T23:01:23.499Z,100896.09
2022-11-01T23:03:54.482Z,100901.22
2022-11-01T23:06:20.926Z,100908.09
2022-11-01T23:08:48.348Z,100906.22
2022-11-01T23:11:37.492Z,100906.06
2022-11-01T23:14:34.898Z,100911.25
2022-11-01T23:17:01.681Z,100908.53
2022-11-01T23:19:28.368Z,100912.84
2022-11-01T23:21:54.943Z,100903.16
2022-11-01T23:24:21.537Z,100903.97
2022-11-01T23:26:48.094Z,100903.06
2022-11-01T23:29:14.683Z,100905.72
2022-11-01T23:31:41.331Z,100901.44
2022-11-01T23:34:09.878Z,100903.31
2022-11-01T23:36:38.296Z,100894.50
2022-11-01T23:39:09.038Z,100898.94
2022-11-01T23:41:41.728Z,100896.38
2022-11-01T23:44:28.702Z,100891.03
2022-11-01T23:47:04.165Z,100896.38
2022-11-01T23:49:33.060Z,100890.22
2022-11-01T23:52:00.417Z,100894.56
2022-11-01T23:54:26.891Z,100897.13
2022-11-01T23:56:54.955Z,100866.06
2022-11-01T23:59:21.477Z,100874.81
